sensor_id;sensor_type;location;lat;lon;timestamp;pressure;altitude;pressure_sealevel;temperature;humidity
62634;BME280;48704;50.534;6.442;2022-10-14T00:01:53;95555.97;;;10.43;100.00
62634;BME280;48704;50.534;6.442;2022-10-14T00:04:18;95558.56;;;10.47;100.00
62634;BME280;48704;50.534;6.442;2022-10-14T00:06:44;95549.56;;;10.37;100.00
62634;BME280;48704;50.534;6.442;2022-10-14T00:09:09;95555.03;;;10.46;100.00
62634;BME280;48704;50.534;6.442;2022-10-14T00:11:36;95549.84;;;10.39;100.00
62634;BME280;48704;50.534;6.442;2022-10-14T00:14:05;95554.25;;;10.46;100.00
62634;BME280;48704;50.534;6.442;2022-10-14T00:16:33;95544.47;;;10.50;100.00
62634;BME280;48704;50.534;6.442;2022-10-14T00:18:59;95552.81;;;10.50;100.00
62634;BME280;48704;50.534;6.442;2022-10-14T00:21:26;95542.94;;;10.49;100.00
62634;BME280;48704;50.534;6.442;2022-10-14T00:23:51;95547.25;;;10.50;100.00
62634;BME280;48704;50.534;6.442;2022-10-14T00:26:24;95555.19;;;10.43;100.00
62634;BME280;48704;50.534;6.442;2022-10-14T00:28:50;95559.63;;;10.49;100.00
62634;BME280;48704;50.534;6.442;2022-10-14T00:31:16;95546.97;;;10.48;100.00
62634;BME280;48704;50.534;6.442;2022-10-14T00:33:42;95555.59;;;10.50;100.00
62634;BME280;48704;50.534;6.442;2022-10-14T00:36:09;95553.41;;;10.54;100.00
62634;BME280;48704;50.534;6.442;2022-10-14T00:38:36;95554.84;;;10.50;100.00
62634;BME280;48704;50.534;6.442;2022-10-14T00:41:02;95551.56;;;10.51;100.00
62634;BME280;48704;50.534;6.442;2022-10-14T00:43:28;95552.81;;;10.50;100.00
62634;BME280;48704;50.534;6.442;2022-10-14T00:45:54;95550.03;;;10.50;100.00
62634;BME280;48704;50.534;6.442;2022-10-14T00:48:22;95549.44;;;10.46;100.00
62634;BME280;48704;50.534;6.442;2022-10-14T00:50:49;95550.81;;;10.51;100.00
62634;BME280;48704;50.534;6.442;2022-10-14T00:53:17;95546.66;;;10.46;100.00
62634;BME280;48704;50.534;6.442;2022-10-14T00:55:42;95547.91;;;10.45;100.00
62634;BME280;48704;50.534;6.442;2022-10-14T00:58:08;95542.81;;;10.44;100.00
62634;BME280;48704;50.534;6.442;2022-10-14T01:00:35;95540.50;;;10.42;100.00
62634;BME280;48704;50.534;6.442;2022-10-14T01:03:06;95536.19;;;10.41;100.00
62634;BME280;48704;50.534;6.442;2022-10-14T01:05:38;95533.69;;;10.43;100.00
62634;BME280;48704;50.534;6.442;2022-10-14T01:08:08;95529.75;;;10.50;100.00
62634;BME280;48704;50.534;6.442;2022-10-14T01:10:40;95531.66;;;10.44;100.00
62634;BME280;48704;50.534;6.442;2022-10-14T01:19:27;95506.22;;;10.51;100.00
62634;BME280;48704;50.534;6.442;2022-10-14T01:22:12;95514.69;;;10.56;100.00
62634;BME280;48704;50.534;6.442;2022-10-14T01:24:54;95513.53;;;10.48;100.00
62634;BME280;48704;50.534;6.442;2022-10-14T01:30:05;95502.66;;;10.50;100.00
62634;BME280;48704;50.534;6.442;2022-10-14T01:32:33;95496.44;;;10.55;100.00
62634;BME280;48704;50.534;6.442;2022-10-14T01:37:52;95486.53;;;10.54;100.00
62634;BME280;48704;50.534;6.442;2022-10-14T01:40:34;95483.16;;;10.50;100.00
62634;BME280;48704;50.534;6.442;2022-10-14T01:43:03;95487.78;;;10.53;100.00
62634;BME280;48704;50.534;6.442;2022-10-14T01:45:31;95476.06;;;10.49;100.00
62634;BME280;48704;50.534;6.442;2022-10-14T01:47:59;95460.88;;;10.50;100.00
62634;BME280;48704;50.534;6.442;2022-10-14T01:50:27;95468.56;;;10.55;100.00
62634;BME280;48704;50.534;6.442;2022-10-14T01:53:03;95466.16;;;10.48;100.00
62634;BME280;48704;50.534;6.442;2022-10-14T01:55:35;95460.69;;;10.54;100.00
62634;BME280;48704;50.534;6.442;2022-10-14T01:58:03;95463.38;;;10.63;100.00
62634;BME280;48704;50.534;6.442;2022-10-14T02:00:30;95462.91;;;10.50;100.00
62634;BME280;48704;50.534;6.442;2022-10-14T02:02:55;95456.94;;;10.42;100.00
62634;BME280;48704;50.534;6.442;2022-10-14T02:07:54;95452.25;;;10.48;100.00
62634;BME280;48704;50.534;6.442;2022-10-14T02:10:47;95452.63;;;10.41;100.00
62634;BME280;48704;50.534;6.442;2022-10-14T02:13:33;95445.13;;;10.47;100.00
62634;BME280;48704;50.534;6.442;2022-10-14T02:18:57;95450.13;;;10.43;100.00
62634;BME280;48704;50.534;6.442;2022-10-14T02:21:30;95448.59;;;10.42;100.00
62634;BME280;48704;50.534;6.442;2022-10-14T02:24:06;95454.16;;;10.42;100.00
62634;BME280;48704;50.534;6.442;2022-10-14T02:26:32;95442.19;;;10.36;100.00
62634;BME280;48704;50.534;6.442;2022-10-14T02:29:00;95444.38;;;10.32;100.00
62634;BME280;48704;50.534;6.442;2022-10-14T02:31:26;95445.34;;;10.29;100.00
62634;BME280;48704;50.534;6.442;2022-10-14T02:33:57;95446.28;;;10.26;100.00
62634;BME280;48704;50.534;6.442;2022-10-14T02:36:24;95440.34;;;10.33;100.00
62634;BME280;48704;50.534;6.442;2022-10-14T02:38:52;95442.19;;;10.36;100.00
62634;BME280;48704;50.534;6.442;2022-10-14T02:41:20;95448.28;;;10.40;100.00
62634;BME280;48704;50.534;6.442;2022-10-14T02:43:47;95439.94;;;10.40;100.00
62634;BME280;48704;50.534;6.442;2022-10-14T02:46:12;95437.09;;;10.34;100.00
62634;BME280;48704;50.534;6.442;2022-10-14T02:48:37;95439.38;;;10.36;100.00
62634;BME280;48704;50.534;6.442;2022-10-14T02:51:03;95435.91;;;10.41;100.00
62634;BME280;48704;50.534;6.442;2022-10-14T02:53:28;95433.69;;;10.45;100.00
62634;BME280;48704;50.534;6.442;2022-10-14T02:55:55;95428.25;;;10.36;100.00
62634;BME280;48704;50.534;6.442;2022-10-14T02:58:20;95428.41;;;10.47;100.00
62634;BME280;48704;50.534;6.442;2022-10-14T03:00:47;95429.94;;;10.48;100.00
62634;BME280;48704;50.534;6.442;2022-10-14T03:03:13;95424.19;;;10.52;100.00
62634;BME280;48704;50.534;6.442;2022-10-14T03:05:38;95425.72;;;10.53;100.00
62634;BME280;48704;50.534;6.442;2022-10-14T03:08:04;95430.91;;;10.45;100.00
62634;BME280;48704;50.534;6.442;2022-10-14T03:10:29;95434.75;;;10.48;100.00
62634;BME280;48704;50.534;6.442;2022-10-14T03:12:55;95431.09;;;10.56;100.00
62634;BME280;48704;50.534;6.442;2022-10-14T03:15:20;95423.03;;;10.58;100.00
62634;BME280;48704;50.534;6.442;2022-10-14T03:17:45;95426.78;;;10.55;100.00
62634;BME280;48704;50.534;6.442;2022-10-14T03:20:11;95419.38;;;10.52;100.00
62634;BME280;48704;50.534;6.442;2022-10-14T03:22:36;95419.69;;;10.54;100.00
62634;BME280;48704;50.534;6.442;2022-10-14T03:25:02;95423.63;;;10.62;100.00
62634;BME280;48704;50.534;6.442;2022-10-14T03:27:27;95415.16;;;10.57;100.00
62634;BME280;48704;50.534;6.442;2022-10-14T03:29:53;95415.75;;;10.46;100.00
62634;BME280;48704;50.534;6.442;2022-10-14T03:32:18;95411.31;;;10.54;100.00
62634;BME280;48704;50.534;6.442;2022-10-14T03:34:43;95406.50;;;10.55;100.00
62634;BME280;48704;50.534;6.442;2022-10-14T03:37:09;95399.50;;;10.59;100.00
62634;BME280;48704;50.534;6.442;2022-10-14T03:39:34;95389.50;;;10.53;100.00
62634;BME280;48704;50.534;6.442;2022-10-14T03:41:59;95385.22;;;10.37;100.00
62634;BME280;48704;50.534;6.442;2022-10-14T03:44:24;95382.50;;;10.57;100.00
62634;BME280;48704;50.534;6.442;2022-10-14T03:46:50;95377.16;;;10.39;100.00
62634;BME280;48704;50.534;6.442;2022-10-14T03:49:15;95385.84;;;10.61;100.00
62634;BME280;48704;50.534;6.442;2022-10-14T03:51:40;95384.41;;;10.51;100.00
62634;BME280;48704;50.534;6.442;2022-10-14T03:54:06;95376.91;;;10.57;100.00
62634;BME280;48704;50.534;6.442;2022-10-14T03:56:31;95379.63;;;10.52;100.00
62634;BME280;48704;50.534;6.442;2022-10-14T03:58:57;95373.25;;;10.66;100.00
62634;BME280;48704;50.534;6.442;2022-10-14T04:01:22;95374.22;;;10.63;100.00
62634;BME280;48704;50.534;6.442;2022-10-14T04:03:47;95382.09;;;10.64;100.00
62634;BME280;48704;50.534;6.442;2022-10-14T04:06:14;95379.41;;;10.55;100.00
62634;BME280;48704;50.534;6.442;2022-10-14T04:08:40;95388.81;;;10.73;100.00
62634;BME280;48704;50.534;6.442;2022-10-14T04:11:05;95385.94;;;10.67;100.00
62634;BME280;48704;50.534;6.442;2022-10-14T04:13:31;95387.38;;;10.62;100.00
62634;BME280;48704;50.534;6.442;2022-10-14T04:15:56;95379.91;;;10.54;100.00
62634;BME280;48704;50.534;6.442;2022-10-14T04:18:21;95373.47;;;10.48;100.00
62634;BME280;48704;50.534;6.442;2022-10-14T04:20:47;95372.69;;;10.47;100.00
62634;BME280;48704;50.534;6.442;2022-10-14T04:23:12;95371.84;;;10.56;100.00
62634;BME280;48704;50.534;6.442;2022-10-14T04:25:38;95374.34;;;10.54;100.00
62634;BME280;48704;50.534;6.442;2022-10-14T04:28:04;95370.97;;;10.50;100.00
62634;BME280;48704;50.534;6.442;2022-10-14T04:30:29;95366.34;;;10.61;100.00
62634;BME280;48704;50.534;6.442;2022-10-14T04:32:54;95376.44;;;10.44;100.00
62634;BME280;48704;50.534;6.442;2022-10-14T04:35:20;95371.63;;;10.59;100.00
62634;BME280;48704;50.534;6.442;2022-10-14T04:37:45;95370.97;;;10.50;100.00
62634;BME280;48704;50.534;6.442;2022-10-14T04:40:10;95381.72;;;10.42;100.00
62634;BME280;48704;50.534;6.442;2022-10-14T04:42:36;95369.81;;;10.56;100.00
62634;BME280;48704;50.534;6.442;2022-10-14T04:45:02;95370.59;;;10.57;100.00
62634;BME280;48704;50.534;6.442;2022-10-14T04:47:27;95366.63;;;10.63;100.00
62634;BME280;48704;50.534;6.442;2022-10-14T04:49:52;95365.66;;;10.66;100.00
62634;BME280;48704;50.534;6.442;2022-10-14T04:52:18;95350.03;;;10.54;100.00
62634;BME280;48704;50.534;6.442;2022-10-14T04:54:43;95350.81;;;10.40;100.00
62634;BME280;48704;50.534;6.442;2022-10-14T04:57:08;95346.94;;;10.52;100.00
62634;BME280;48704;50.534;6.442;2022-10-14T04:59:34;95347.34;;;10.45;100.00
62634;BME280;48704;50.534;6.442;2022-10-14T05:01:59;95349.16;;;10.48;100.00
62634;BME280;48704;50.534;6.442;2022-10-14T05:04:25;95354.03;;;10.68;100.00
62634;BME280;48704;50.534;6.442;2022-10-14T05:06:50;95343.66;;;10.68;100.00
62634;BME280;48704;50.534;6.442;2022-10-14T05:09:15;95344.44;;;10.69;100.00
62634;BME280;48704;50.534;6.442;2022-10-14T05:11:41;95347.50;;;10.71;100.00
62634;BME280;48704;50.534;6.442;2022-10-14T05:14:06;95344.53;;;10.60;100.00
62634;BME280;48704;50.534;6.442;2022-10-14T05:16:31;95337.53;;;10.64;100.00
62634;BME280;48704;50.534;6.442;2022-10-14T05:18:57;95330.41;;;10.63;100.00
62634;BME280;48704;50.534;6.442;2022-10-14T05:21:22;95328.31;;;10.58;100.00
62634;BME280;48704;50.534;6.442;2022-10-14T05:23:47;95328.59;;;10.60;100.00
62634;BME280;48704;50.534;6.442;2022-10-14T05:26:13;95333.31;;;10.54;100.00
62634;BME280;48704;50.534;6.442;2022-10-14T05:28:38;95330.44;;;10.49;100.00
62634;BME280;48704;50.534;6.442;2022-10-14T05:31:04;95333.47;;;10.65;100.00
62634;BME280;48704;50.534;6.442;2022-10-14T05:33:30;95329.72;;;10.68;100.00
62634;BME280;48704;50.534;6.442;2022-10-14T05:35:56;95334.44;;;10.62;100.00
62634;BME280;48704;50.534;6.442;2022-10-14T05:38:21;95330.69;;;10.65;100.00
62634;BME280;48704;50.534;6.442;2022-10-14T05:40:54;95327.16;;;10.50;100.00
62634;BME280;48704;50.534;6.442;2022-10-14T05:43:19;95329.84;;;10.59;100.00
62634;BME280;48704;50.534;6.442;2022-10-14T05:45:45;95328.88;;;10.62;100.00
62634;BME280;48704;50.534;6.442;2022-10-14T05:48:10;95326.38;;;10.64;100.00
62634;BME280;48704;50.534;6.442;2022-10-14T05:50:35;95319.25;;;10.63;100.00
62634;BME280;48704;50.534;6.442;2022-10-14T05:53:01;95325.13;;;10.65;100.00
62634;BME280;48704;50.534;6.442;2022-10-14T05:55:26;95326.94;;;10.68;100.00
62634;BME280;48704;50.534;6.442;2022-10-14T05:57:55;95311.97;;;10.66;100.00
62634;BME280;48704;50.534;6.442;2022-10-14T06:00:20;95306.09;;;10.64;100.00
62634;BME280;48704;50.534;6.442;2022-10-14T06:02:45;95313.28;;;10.70;100.00
62634;BME280;48704;50.534;6.442;2022-10-14T06:05:10;95309.47;;;10.68;100.00
62634;BME280;48704;50.534;6.442;2022-10-14T06:07:36;95310.22;;;10.68;100.00
62634;BME280;48704;50.534;6.442;2022-10-14T06:10:01;95304.94;;;10.70;100.00
62634;BME280;48704;50.534;6.442;2022-10-14T06:12:27;95303.13;;;10.67;100.00
62634;BME280;48704;50.534;6.442;2022-10-14T06:14:53;95299.06;;;10.68;100.00
62634;BME280;48704;50.534;6.442;2022-10-14T06:17:18;95299.16;;;10.74;100.00
62634;BME280;48704;50.534;6.442;2022-10-14T06:19:44;95298.16;;;10.77;100.00
62634;BME280;48704;50.534;6.442;2022-10-14T06:22:09;95304.16;;;10.70;100.00
62634;BME280;48704;50.534;6.442;2022-10-14T06:24:34;95296.56;;;10.70;100.00
62634;BME280;48704;50.534;6.442;2022-10-14T06:27:00;95290.03;;;10.74;100.00
62634;BME280;48704;50.534;6.442;2022-10-14T06:29:25;95294.63;;;10.77;100.00
62634;BME280;48704;50.534;6.442;2022-10-14T06:31:55;95292.09;;;10.79;100.00
62634;BME280;48704;50.534;6.442;2022-10-14T06:34:20;95292.88;;;10.79;100.00
62634;BME280;48704;50.534;6.442;2022-10-14T06:36:48;95296.69;;;10.82;100.00
62634;BME280;48704;50.534;6.442;2022-10-14T06:39:13;95289.09;;;10.82;100.00
62634;BME280;48704;50.534;6.442;2022-10-14T06:41:38;95294.47;;;10.86;100.00
62634;BME280;48704;50.534;6.442;2022-10-14T06:44:04;95289.19;;;10.88;100.00
62634;BME280;48704;50.534;6.442;2022-10-14T06:46:29;95293.03;;;10.90;100.00
62634;BME280;48704;50.534;6.442;2022-10-14T06:48:54;95279.72;;;11.00;100.00
62634;BME280;48704;50.534;6.442;2022-10-14T06:51:20;95285.28;;;11.00;100.00
62634;BME280;48704;50.534;6.442;2022-10-14T06:53:45;95277.63;;;10.95;100.00
62634;BME280;48704;50.534;6.442;2022-10-14T06:56:11;95268.56;;;11.00;100.00
62634;BME280;48704;50.534;6.442;2022-10-14T06:58:36;95275.69;;;11.01;100.00
62634;BME280;48704;50.534;6.442;2022-10-14T07:01:03;95278.31;;;11.10;100.00
62634;BME280;48704;50.534;6.442;2022-10-14T07:03:29;95278.31;;;11.10;100.00
62634;BME280;48704;50.534;6.442;2022-10-14T07:05:54;95277.22;;;11.02;100.00
62634;BME280;48704;50.534;6.442;2022-10-14T07:08:20;95284.88;;;11.07;100.00
62634;BME280;48704;50.534;6.442;2022-10-14T07:10:46;95291.72;;;11.06;100.00
62634;BME280;48704;50.534;6.442;2022-10-14T07:13:12;95285.97;;;11.15;100.00
62634;BME280;48704;50.534;6.442;2022-10-14T07:15:37;95277.88;;;11.17;100.00
62634;BME280;48704;50.534;6.442;2022-10-14T07:18:04;95266.78;;;11.23;100.00
62634;BME280;48704;50.534;6.442;2022-10-14T07:20:29;95264.22;;;11.19;100.00
62634;BME280;48704;50.534;6.442;2022-10-14T07:22:55;95266.31;;;11.24;100.00
62634;BME280;48704;50.534;6.442;2022-10-14T07:25:21;95263.78;;;11.26;100.00
62634;BME280;48704;50.534;6.442;2022-10-14T07:27:46;95270.91;;;11.27;100.00
62634;BME280;48704;50.534;6.442;2022-10-14T07:30:12;95274.75;;;11.30;100.00
62634;BME280;48704;50.534;6.442;2022-10-14T07:32:37;95268.94;;;11.33;100.00
62634;BME280;48704;50.534;6.442;2022-10-14T07:35:03;95267.13;;;11.30;100.00
62634;BME280;48704;50.534;6.442;2022-10-14T07:37:28;95276.91;;;11.41;100.00
62634;BME280;48704;50.534;6.442;2022-10-14T07:39:53;95265.03;;;11.46;100.00
62634;BME280;48704;50.534;6.442;2022-10-14T07:42:19;95268.53;;;11.41;100.00
62634;BME280;48704;50.534;6.442;2022-10-14T07:44:44;95265.59;;;11.50;100.00
62634;BME280;48704;50.534;6.442;2022-10-14T07:47:10;95265.59;;;11.50;100.00
62634;BME280;48704;50.534;6.442;2022-10-14T07:49:35;95273.44;;;11.51;100.00
62634;BME280;48704;50.534;6.442;2022-10-14T07:52:04;95274.38;;;11.43;100.00
62634;BME280;48704;50.534;6.442;2022-10-14T07:54:29;95268.31;;;11.44;100.00
62634;BME280;48704;50.534;6.442;2022-10-14T07:56:57;95275.44;;;11.45;100.00
62634;BME280;48704;50.534;6.442;2022-10-14T07:59:23;95271.16;;;11.50;100.00
62634;BME280;48704;50.534;6.442;2022-10-14T08:01:50;95272.19;;;11.52;100.00
62634;BME280;48704;50.534;6.442;2022-10-14T08:04:16;95269.16;;;11.56;100.00
62634;BME280;48704;50.534;6.442;2022-10-14T08:06:41;95268.03;;;11.68;100.00
62634;BME280;48704;50.534;6.442;2022-10-14T08:09:13;95270.69;;;11.77;100.00
62634;BME280;48704;50.534;6.442;2022-10-14T08:11:42;95260.91;;;11.67;100.00
62634;BME280;48704;50.534;6.442;2022-10-14T08:14:07;95254.75;;;11.83;100.00
62634;BME280;48704;50.534;6.442;2022-10-14T08:16:34;95251.22;;;11.88;100.00
62634;BME280;48704;50.534;6.442;2022-10-14T08:19:05;95259.00;;;12.04;100.00
62634;BME280;48704;50.534;6.442;2022-10-14T08:21:31;95262.66;;;11.90;100.00
62634;BME280;48704;50.534;6.442;2022-10-14T08:23:57;95263.13;;;11.83;100.00
62634;BME280;48704;50.534;6.442;2022-10-14T08:29:03;95257.47;;;12.03;100.00
62634;BME280;48704;50.534;6.442;2022-10-14T08:31:33;95256.69;;;12.03;100.00
62634;BME280;48704;50.534;6.442;2022-10-14T08:34:02;95258.94;;;11.99;100.00
62634;BME280;48704;50.534;6.442;2022-10-14T08:36:27;95255.16;;;12.02;100.00
62634;BME280;48704;50.534;6.442;2022-10-14T08:38:53;95249.25;;;11.94;100.00
62634;BME280;48704;50.534;6.442;2022-10-14T08:46:43;95247.00;;;11.98;100.00
62634;BME280;48704;50.534;6.442;2022-10-14T08:49:17;95243.31;;;12.13;100.00
62634;BME280;48704;50.534;6.442;2022-10-14T08:51:48;95241.59;;;12.21;100.00
62634;BME280;48704;50.534;6.442;2022-10-14T08:54:29;95243.19;;;12.33;100.00
62634;BME280;48704;50.534;6.442;2022-10-14T08:56:56;95238.69;;;12.41;100.00
62634;BME280;48704;50.534;6.442;2022-10-14T08:59:24;95231.28;;;12.38;100.00
62634;BME280;48704;50.534;6.442;2022-10-14T09:01:59;95229.84;;;12.48;100.00
62634;BME280;48704;50.534;6.442;2022-10-14T09:04:26;95235.66;;;12.45;100.00
62634;BME280;48704;50.534;6.442;2022-10-14T09:06:52;95226.69;;;12.35;100.00
62634;BME280;48704;50.534;6.442;2022-10-14T09:09:29;95221.13;;;12.35;100.00
62634;BME280;48704;50.534;6.442;2022-10-14T09:12:00;95226.66;;;12.29;100.00
62634;BME280;48704;50.534;6.442;2022-10-14T09:14:32;95222.38;;;12.34;100.00
62634;BME280;48704;50.534;6.442;2022-10-14T09:17:26;95210.47;;;12.39;100.00
62634;BME280;48704;50.534;6.442;2022-10-14T09:20:02;95222.09;;;12.32;100.00
62634;BME280;48704;50.534;6.442;2022-10-14T09:22:29;95218.00;;;12.22;100.00
62634;BME280;48704;50.534;6.442;2022-10-14T09:24:56;95206.06;;;12.27;100.00
62634;BME280;48704;50.534;6.442;2022-10-14T09:27:22;95212.91;;;12.20;100.00
62634;BME280;48704;50.534;6.442;2022-10-14T09:29:51;95214.66;;;12.18;100.00
62634;BME280;48704;50.534;6.442;2022-10-14T09:34:58;95205.56;;;12.23;100.00
62634;BME280;48704;50.534;6.442;2022-10-14T09:37:29;95205.84;;;12.25;100.00
62634;BME280;48704;50.534;6.442;2022-10-14T09:40:00;95216.19;;;12.19;100.00
62634;BME280;48704;50.534;6.442;2022-10-14T09:45:23;95202.09;;;12.39;100.00
62634;BME280;48704;50.534;6.442;2022-10-14T09:47:55;95212.53;;;12.44;100.00
62634;BME280;48704;50.534;6.442;2022-10-14T09:50:34;95202.81;;;12.34;100.00
62634;BME280;48704;50.534;6.442;2022-10-14T09:53:03;95193.00;;;12.50;100.00
62634;BME280;48704;50.534;6.442;2022-10-14T09:55:31;95198.63;;;12.55;100.00
62634;BME280;48704;50.534;6.442;2022-10-14T09:58:02;95194.84;;;12.58;100.00
62634;BME280;48704;50.534;6.442;2022-10-14T10:00:30;95192.56;;;12.68;100.00
62634;BME280;48704;50.534;6.442;2022-10-14T10:02:56;95188.72;;;12.54;100.00
62634;BME280;48704;50.534;6.442;2022-10-14T10:05:24;95193.81;;;12.56;100.00
62634;BME280;48704;50.534;6.442;2022-10-14T10:10:29;95179.59;;;12.59;100.00
62634;BME280;48704;50.534;6.442;2022-10-14T10:12:58;95180.88;;;12.64;100.00
62634;BME280;48704;50.534;6.442;2022-10-14T10:15:23;95190.28;;;12.66;100.00
62634;BME280;48704;50.534;6.442;2022-10-14T10:17:50;95189.34;;;12.81;100.00
62634;BME280;48704;50.534;6.442;2022-10-14T10:23:21;95182.31;;;13.13;100.00
62634;BME280;48704;50.534;6.442;2022-10-14T10:25:49;95186.38;;;13.12;100.00
62634;BME280;48704;50.534;6.442;2022-10-14T10:28:17;95181.38;;;13.27;100.00
62634;BME280;48704;50.534;6.442;2022-10-14T10:30:59;95178.09;;;13.29;100.00
62634;BME280;48704;50.534;6.442;2022-10-14T10:33:51;95170.72;;;13.31;100.00
62634;BME280;48704;50.534;6.442;2022-10-14T10:36:39;95177.34;;;13.51;100.00
62634;BME280;48704;50.534;6.442;2022-10-14T10:39:26;95164.88;;;13.57;100.00
62634;BME280;48704;50.534;6.442;2022-10-14T10:47:27;95167.69;;;13.85;100.00
62634;BME280;48704;50.534;6.442;2022-10-14T10:52:55;95160.53;;;13.84;100.00
62634;BME280;48704;50.534;6.442;2022-10-14T11:09:33;95131.28;;;13.41;100.00
62634;BME280;48704;50.534;6.442;2022-10-14T11:12:32;95141.19;;;13.19;100.00
62634;BME280;48704;50.534;6.442;2022-10-14T11:15:29;95130.22;;;13.16;100.00
62634;BME280;48704;50.534;6.442;2022-10-14T11:18:29;95137.78;;;13.04;100.00
62634;BME280;48704;50.534;6.442;2022-10-14T11:26:52;95128.88;;;13.00;100.00
62634;BME280;48704;50.534;6.442;2022-10-14T11:33:05;95135.84;;;13.27;100.00
62634;BME280;48704;50.534;6.442;2022-10-14T11:43:50;95129.66;;;12.95;100.00
62634;BME280;48704;50.534;6.442;2022-10-14T11:46:20;95133.47;;;12.92;100.00
62634;BME280;48704;50.534;6.442;2022-10-14T11:48:57;95132.97;;;12.99;100.00
62634;BME280;48704;50.534;6.442;2022-10-14T11:51:29;95124.53;;;12.82;100.00
62634;BME280;48704;50.534;6.442;2022-10-14T11:56:41;95126.00;;;12.72;100.00
62634;BME280;48704;50.534;6.442;2022-10-14T11:59:24;95125.78;;;12.76;100.00
62634;BME280;48704;50.534;6.442;2022-10-14T12:01:57;95114.06;;;12.71;100.00
62634;BME280;48704;50.534;6.442;2022-10-14T12:04:30;95118.41;;;12.72;100.00
62634;BME280;48704;50.534;6.442;2022-10-14T12:07:10;95108.00;;;12.79;100.00
62634;BME280;48704;50.534;6.442;2022-10-14T12:09:42;95113.84;;;12.75;100.00
62634;BME280;48704;50.534;6.442;2022-10-14T12:12:12;95126.53;;;12.76;100.00
62634;BME280;48704;50.534;6.442;2022-10-14T12:14:43;95110.50;;;12.65;100.00
62634;BME280;48704;50.534;6.442;2022-10-14T12:17:21;95105.16;;;12.67;100.00
62634;BME280;48704;50.534;6.442;2022-10-14T12:19:48;95107.94;;;12.56;100.00
62634;BME280;48704;50.534;6.442;2022-10-14T12:24:45;95095.28;;;12.78;100.00
62634;BME280;48704;50.534;6.442;2022-10-14T12:27:13;95086.34;;;12.62;100.00
62634;BME280;48704;50.534;6.442;2022-10-14T12:29:41;95083.31;;;12.66;100.00
62634;BME280;48704;50.534;6.442;2022-10-14T12:34:54;95070.13;;;12.78;100.00
62634;BME280;48704;50.534;6.442;2022-10-14T12:39:53;95062.00;;;12.85;100.00
62634;BME280;48704;50.534;6.442;2022-10-14T12:42:19;95076.53;;;12.95;100.00
62634;BME280;48704;50.534;6.442;2022-10-14T12:44:52;95070.41;;;13.02;100.00
62634;BME280;48704;50.534;6.442;2022-10-14T12:47:28;95069.91;;;13.09;100.00
62634;BME280;48704;50.534;6.442;2022-10-14T12:49:58;95070.19;;;13.11;100.00
62634;BME280;48704;50.534;6.442;2022-10-14T12:52:34;95059.78;;;13.17;100.00
62634;BME280;48704;50.534;6.442;2022-10-14T12:55:01;95052.94;;;13.35;100.00
62634;BME280;48704;50.534;6.442;2022-10-14T12:57:35;95046.56;;;13.46;100.00
62634;BME280;48704;50.534;6.442;2022-10-14T13:00:26;95043.50;;;13.44;100.00
62634;BME280;48704;50.534;6.442;2022-10-14T13:02:53;95053.19;;;13.20;100.00
62634;BME280;48704;50.534;6.442;2022-10-14T13:05:42;95054.69;;;13.16;100.00
62634;BME280;48704;50.534;6.442;2022-10-14T13:08:25;95050.38;;;13.20;100.00
62634;BME280;48704;50.534;6.442;2022-10-14T13:18:57;95033.34;;;13.29;100.00
62634;BME280;48704;50.534;6.442;2022-10-14T13:21:49;95035.13;;;13.21;100.00
62634;BME280;48704;50.534;6.442;2022-10-14T13:24:21;95047.06;;;13.27;100.00
62634;BME280;48704;50.534;6.442;2022-10-14T13:27:00;95044.53;;;13.18;100.00
62634;BME280;48704;50.534;6.442;2022-10-14T13:35:20;95026.97;;;13.18;100.00
62634;BME280;48704;50.534;6.442;2022-10-14T13:38:06;95026.72;;;13.16;100.00
62634;BME280;48704;50.534;6.442;2022-10-14T13:40:37;95022.66;;;13.22;100.00
62634;BME280;48704;50.534;6.442;2022-10-14T13:43:23;95018.56;;;13.12;100.00
62634;BME280;48704;50.534;6.442;2022-10-14T13:46:06;95029.28;;;13.19;100.00
62634;BME280;48704;50.534;6.442;2022-10-14T13:48:43;95032.31;;;13.21;100.00
62634;BME280;48704;50.534;6.442;2022-10-14T13:53:54;95029.78;;;13.34;100.00
62634;BME280;48704;50.534;6.442;2022-10-14T13:56:30;95021.09;;;13.55;100.00
62634;BME280;48704;50.534;6.442;2022-10-14T13:58:57;95021.28;;;13.79;100.00
62634;BME280;48704;50.534;6.442;2022-10-14T14:01:35;95019.50;;;13.87;100.00
62634;BME280;48704;50.534;6.442;2022-10-14T14:04:01;95023.72;;;14.16;100.00
62634;BME280;48704;50.534;6.442;2022-10-14T14:06:27;95023.19;;;14.29;100.00
62634;BME280;48704;50.534;6.442;2022-10-14T14:09:00;95031.84;;;14.25;100.00
62634;BME280;48704;50.534;6.442;2022-10-14T14:11:29;95014.81;;;14.18;100.00
62634;BME280;48704;50.534;6.442;2022-10-14T14:13:59;95010.19;;;14.26;100.00
62634;BME280;48704;50.534;6.442;2022-10-14T14:16:33;95023.41;;;14.31;100.00
62634;BME280;48704;50.534;6.442;2022-10-14T14:19:00;95016.28;;;14.41;100.00
62634;BME280;48704;50.534;6.442;2022-10-14T14:21:26;95016.88;;;14.69;100.00
62634;BME280;48704;50.534;6.442;2022-10-14T14:24:00;95013.66;;;14.54;100.00
62634;BME280;48704;50.534;6.442;2022-10-14T14:26:32;95008.88;;;14.38;100.00
62634;BME280;48704;50.534;6.442;2022-10-14T14:28:58;95004.03;;;14.44;100.00
62634;BME280;48704;50.534;6.442;2022-10-14T14:31:25;94995.28;;;14.53;100.00
62634;BME280;48704;50.534;6.442;2022-10-14T14:33:56;94992.69;;;14.66;100.00
62634;BME280;48704;50.534;6.442;2022-10-14T14:36:26;95002.38;;;14.65;100.00
62634;BME280;48704;50.534;6.442;2022-10-14T14:39:00;95004.75;;;14.50;100.00
62634;BME280;48704;50.534;6.442;2022-10-14T14:41:28;95005.56;;;14.39;100.00
62634;BME280;48704;50.534;6.442;2022-10-14T14:44:03;95012.69;;;14.35;100.00